sensor_id;sensor_type;location;lat;lon;timestamp;P1;durP1;ratioP1;P2;durP2;ratioP2
19998;SDS011;10160;50.926;4.374;2022-11-27T00:02:03;17.23;;;5.93;;
19998;SDS011;10160;50.926;4.374;2022-11-27T00:04:29;21.30;;;5.90;;
19998;SDS011;10160;50.926;4.374;2022-11-27T00:06:55;18.67;;;4.70;;
19998;SDS011;10160;50.926;4.374;2022-11-27T00:09:21;17.50;;;5.20;;
19998;SDS011;10160;50.926;4.374;2022-11-27T00:11:46;24.37;;;5.70;;
19998;SDS011;10160;50.926;4.374;2022-11-27T00:14:13;20.07;;;5.40;;
19998;SDS011;10160;50.926;4.374;2022-11-27T00:16:41;16.43;;;4.70;;
19998;SDS011;10160;50.926;4.374;2022-11-27T00:19:13;19.00;;;5.73;;
19998;SDS011;10160;50.926;4.374;2022-11-27T00:21:40;17.80;;;5.60;;
19998;SDS011;10160;50.926;4.374;2022-11-27T00:24:07;17.17;;;6.20;;
19998;SDS011;10160;50.926;4.374;2022-11-27T00:26:36;15.73;;;5.60;;
19998;SDS011;10160;50.926;4.374;2022-11-27T00:29:02;18.33;;;5.27;;
19998;SDS011;10160;50.926;4.374;2022-11-27T00:31:29;17.33;;;5.63;;
19998;SDS011;10160;50.926;4.374;2022-11-27T00:33:57;12.47;;;4.67;;
19998;SDS011;10160;50.926;4.374;2022-11-27T00:36:26;18.80;;;5.90;;
19998;SDS011;10160;50.926;4.374;2022-11-27T00:38:54;16.17;;;4.60;;
19998;SDS011;10160;50.926;4.374;2022-11-27T00:41:22;19.50;;;5.53;;
19998;SDS011;10160;50.926;4.374;2022-11-27T00:43:50;20.27;;;5.50;;
19998;SDS011;10160;50.926;4.374;2022-11-27T00:46:17;21.40;;;6.17;;
19998;SDS011;10160;50.926;4.374;2022-11-27T00:48:47;18.47;;;5.73;;
19998;SDS011;10160;50.926;4.374;2022-11-27T00:51:15;14.77;;;4.83;;
19998;SDS011;10160;50.926;4.374;2022-11-27T00:53:43;22.40;;;5.40;;
19998;SDS011;10160;50.926;4.374;2022-11-27T00:56:09;15.83;;;4.67;;
19998;SDS011;10160;50.926;4.374;2022-11-27T00:58:44;12.63;;;4.27;;
19998;SDS011;10160;50.926;4.374;2022-11-27T01:01:18;15.50;;;4.33;;
19998;SDS011;10160;50.926;4.374;2022-11-27T01:04:11;19.73;;;4.80;;
19998;SDS011;10160;50.926;4.374;2022-11-27T01:06:38;15.97;;;4.60;;
19998;SDS011;10160;50.926;4.374;2022-11-27T01:09:04;13.20;;;4.07;;
19998;SDS011;10160;50.926;4.374;2022-11-27T01:11:31;16.73;;;4.40;;
19998;SDS011;10160;50.926;4.374;2022-11-27T01:13:59;17.83;;;4.70;;
19998;SDS011;10160;50.926;4.374;2022-11-27T01:16:32;16.77;;;4.50;;
19998;SDS011;10160;50.926;4.374;2022-11-27T01:18:58;17.13;;;4.07;;
19998;SDS011;10160;50.926;4.374;2022-11-27T01:21:27;19.53;;;4.03;;
19998;SDS011;10160;50.926;4.374;2022-11-27T01:23:55;18.30;;;4.10;;
19998;SDS011;10160;50.926;4.374;2022-11-27T01:26:20;12.37;;;3.10;;
19998;SDS011;10160;50.926;4.374;2022-11-27T01:28:46;13.37;;;3.73;;
19998;SDS011;10160;50.926;4.374;2022-11-27T01:31:24;14.27;;;3.63;;
19998;SDS011;10160;50.926;4.374;2022-11-27T01:33:52;12.33;;;3.53;;
19998;SDS011;10160;50.926;4.374;2022-11-27T01:36:20;12.73;;;4.00;;
19998;SDS011;10160;50.926;4.374;2022-11-27T01:38:48;12.47;;;3.97;;
19998;SDS011;10160;50.926;4.374;2022-11-27T01:43:55;10.63;;;3.63;;
19998;SDS011;10160;50.926;4.374;2022-11-27T01:46:55;13.03;;;3.97;;
19998;SDS011;10160;50.926;4.374;2022-11-27T01:51:58;15.53;;;3.63;;
19998;SDS011;10160;50.926;4.374;2022-11-27T01:54:32;11.10;;;3.37;;
19998;SDS011;10160;50.926;4.374;2022-11-27T01:57:40;9.67;;;3.50;;
19998;SDS011;10160;50.926;4.374;2022-11-27T02:00:09;9.93;;;3.30;;
19998;SDS011;10160;50.926;4.374;2022-11-27T02:02:42;8.10;;;2.50;;
19998;SDS011;10160;50.926;4.374;2022-11-27T02:05:26;12.23;;;3.70;;
19998;SDS011;10160;50.926;4.374;2022-11-27T02:07:53;11.83;;;3.67;;
19998;SDS011;10160;50.926;4.374;2022-11-27T02:10:28;16.00;;;3.80;;
19998;SDS011;10160;50.926;4.374;2022-11-27T02:13:07;14.67;;;3.90;;
19998;SDS011;10160;50.926;4.374;2022-11-27T02:18:26;8.47;;;3.20;;
19998;SDS011;10160;50.926;4.374;2022-11-27T02:29:31;9.60;;;3.67;;
19998;SDS011;10160;50.926;4.374;2022-11-27T02:37:43;9.33;;;2.83;;
19998;SDS011;10160;50.926;4.374;2022-11-27T02:40:15;9.87;;;3.53;;
19998;SDS011;10160;50.926;4.374;2022-11-27T02:45:21;15.03;;;3.00;;
19998;SDS011;10160;50.926;4.374;2022-11-27T02:47:52;10.53;;;3.27;;
19998;SDS011;10160;50.926;4.374;2022-11-27T02:50:21;12.77;;;2.97;;
19998;SDS011;10160;50.926;4.374;2022-11-27T02:52:50;6.03;;;2.40;;
19998;SDS011;10160;50.926;4.374;2022-11-27T02:55:21;8.27;;;2.63;;
19998;SDS011;10160;50.926;4.374;2022-11-27T02:57:49;9.33;;;3.00;;
19998;SDS011;10160;50.926;4.374;2022-11-27T03:00:18;10.30;;;2.63;;
19998;SDS011;10160;50.926;4.374;2022-11-27T03:02:46;9.40;;;2.70;;
19998;SDS011;10160;50.926;4.374;2022-11-27T03:05:17;8.93;;;2.73;;
19998;SDS011;10160;50.926;4.374;2022-11-27T03:07:46;7.10;;;2.70;;
19998;SDS011;10160;50.926;4.374;2022-11-27T03:10:34;7.07;;;2.50;;
19998;SDS011;10160;50.926;4.374;2022-11-27T03:13:23;8.60;;;2.83;;
19998;SDS011;10160;50.926;4.374;2022-11-27T03:21:47;6.43;;;2.40;;
19998;SDS011;10160;50.926;4.374;2022-11-27T03:24:23;7.33;;;2.70;;
19998;SDS011;10160;50.926;4.374;2022-11-27T03:26:49;11.13;;;2.97;;
19998;SDS011;10160;50.926;4.374;2022-11-27T03:29:25;8.73;;;2.73;;
19998;SDS011;10160;50.926;4.374;2022-11-27T03:32:14;7.47;;;2.60;;
19998;SDS011;10160;50.926;4.374;2022-11-27T03:34:40;8.23;;;2.77;;
19998;SDS011;10160;50.926;4.374;2022-11-27T03:37:07;7.87;;;2.50;;
19998;SDS011;10160;50.926;4.374;2022-11-27T03:39:33;8.23;;;2.90;;
19998;SDS011;10160;50.926;4.374;2022-11-27T03:42:04;10.97;;;2.60;;
19998;SDS011;10160;50.926;4.374;2022-11-27T03:53:24;10.23;;;2.63;;
19998;SDS011;10160;50.926;4.374;2022-11-27T03:59:12;8.10;;;2.97;;
19998;SDS011;10160;50.926;4.374;2022-11-27T04:01:46;7.40;;;2.73;;
19998;SDS011;10160;50.926;4.374;2022-11-27T04:04:13;9.73;;;3.23;;
19998;SDS011;10160;50.926;4.374;2022-11-27T04:06:39;8.60;;;3.00;;
19998;SDS011;10160;50.926;4.374;2022-11-27T04:09:05;7.27;;;2.77;;
19998;SDS011;10160;50.926;4.374;2022-11-27T04:11:31;7.37;;;3.20;;
19998;SDS011;10160;50.926;4.374;2022-11-27T04:13:59;12.70;;;3.70;;
19998;SDS011;10160;50.926;4.374;2022-11-27T04:16:25;9.73;;;3.27;;
19998;SDS011;10160;50.926;4.374;2022-11-27T04:18:52;11.63;;;3.50;;
19998;SDS011;10160;50.926;4.374;2022-11-27T04:21:18;7.27;;;2.63;;
19998;SDS011;10160;50.926;4.374;2022-11-27T04:23:44;10.47;;;3.37;;
19998;SDS011;10160;50.926;4.374;2022-11-27T04:26:10;9.63;;;3.17;;
19998;SDS011;10160;50.926;4.374;2022-11-27T04:28:37;19.93;;;3.50;;
19998;SDS011;10160;50.926;4.374;2022-11-27T04:31:03;11.07;;;3.07;;
19998;SDS011;10160;50.926;4.374;2022-11-27T04:33:29;9.03;;;3.20;;
19998;SDS011;10160;50.926;4.374;2022-11-27T04:35:55;9.17;;;3.03;;
19998;SDS011;10160;50.926;4.374;2022-11-27T04:38:21;10.43;;;3.63;;
19998;SDS011;10160;50.926;4.374;2022-11-27T04:40:51;11.43;;;3.30;;
19998;SDS011;10160;50.926;4.374;2022-11-27T04:43:19;8.27;;;3.13;;
19998;SDS011;10160;50.926;4.374;2022-11-27T04:45:45;12.87;;;3.53;;
19998;SDS011;10160;50.926;4.374;2022-11-27T04:48:11;11.67;;;3.47;;
19998;SDS011;10160;50.926;4.374;2022-11-27T04:50:37;8.60;;;2.80;;
19998;SDS011;10160;50.926;4.374;2022-11-27T04:53:02;10.63;;;3.30;;
19998;SDS011;10160;50.926;4.374;2022-11-27T04:55:28;7.83;;;2.43;;
19998;SDS011;10160;50.926;4.374;2022-11-27T04:57:54;13.80;;;3.30;;
19998;SDS011;10160;50.926;4.374;2022-11-27T05:00:21;7.53;;;3.20;;
19998;SDS011;10160;50.926;4.374;2022-11-27T05:02:47;6.03;;;2.63;;
19998;SDS011;10160;50.926;4.374;2022-11-27T05:05:13;10.37;;;3.30;;
19998;SDS011;10160;50.926;4.374;2022-11-27T05:07:39;14.23;;;3.63;;
19998;SDS011;10160;50.926;4.374;2022-11-27T05:10:04;10.27;;;3.10;;
19998;SDS011;10160;50.926;4.374;2022-11-27T05:12:31;10.07;;;3.37;;
19998;SDS011;10160;50.926;4.374;2022-11-27T05:14:56;9.73;;;2.80;;
19998;SDS011;10160;50.926;4.374;2022-11-27T05:17:22;8.03;;;3.30;;
19998;SDS011;10160;50.926;4.374;2022-11-27T05:19:48;7.93;;;2.83;;
19998;SDS011;10160;50.926;4.374;2022-11-27T05:22:13;9.97;;;3.43;;
19998;SDS011;10160;50.926;4.374;2022-11-27T05:24:39;7.27;;;3.53;;
19998;SDS011;10160;50.926;4.374;2022-11-27T05:27:06;10.80;;;4.40;;
19998;SDS011;10160;50.926;4.374;2022-11-27T05:29:32;11.07;;;3.80;;
19998;SDS011;10160;50.926;4.374;2022-11-27T05:31:58;11.23;;;3.43;;
19998;SDS011;10160;50.926;4.374;2022-11-27T05:34:23;12.67;;;3.90;;
19998;SDS011;10160;50.926;4.374;2022-11-27T05:36:50;15.80;;;4.87;;
19998;SDS011;10160;50.926;4.374;2022-11-27T05:39:17;15.33;;;3.80;;
19998;SDS011;10160;50.926;4.374;2022-11-27T05:41:44;11.43;;;4.33;;
19998;SDS011;10160;50.926;4.374;2022-11-27T05:44:13;12.07;;;4.47;;
19998;SDS011;10160;50.926;4.374;2022-11-27T05:46:41;9.60;;;4.23;;
19998;SDS011;10160;50.926;4.374;2022-11-27T05:49:13;8.97;;;3.50;;
19998;SDS011;10160;50.926;4.374;2022-11-27T05:51:40;8.23;;;3.37;;
19998;SDS011;10160;50.926;4.374;2022-11-27T05:54:07;11.80;;;4.57;;
19998;SDS011;10160;50.926;4.374;2022-11-27T05:56:34;11.33;;;3.93;;
19998;SDS011;10160;50.926;4.374;2022-11-27T05:59:00;11.33;;;3.80;;
19998;SDS011;10160;50.926;4.374;2022-11-27T06:01:26;11.60;;;4.77;;
19998;SDS011;10160;50.926;4.374;2022-11-27T06:03:53;10.70;;;4.27;;
19998;SDS011;10160;50.926;4.374;2022-11-27T06:06:19;10.97;;;4.27;;
19998;SDS011;10160;50.926;4.374;2022-11-27T06:08:45;8.03;;;3.63;;
19998;SDS011;10160;50.926;4.374;2022-11-27T06:11:21;10.23;;;3.47;;
19998;SDS011;10160;50.926;4.374;2022-11-27T06:13:48;10.23;;;3.80;;
19998;SDS011;10160;50.926;4.374;2022-11-27T06:16:17;7.77;;;3.07;;
19998;SDS011;10160;50.926;4.374;2022-11-27T06:18:44;9.13;;;3.20;;
19998;SDS011;10160;50.926;4.374;2022-11-27T06:21:13;8.57;;;3.93;;
19998;SDS011;10160;50.926;4.374;2022-11-27T06:23:41;8.37;;;3.23;;
19998;SDS011;10160;50.926;4.374;2022-11-27T06:26:18;10.33;;;3.73;;
19998;SDS011;10160;50.926;4.374;2022-11-27T06:28:48;12.30;;;3.80;;
19998;SDS011;10160;50.926;4.374;2022-11-27T06:31:16;8.93;;;3.53;;
19998;SDS011;10160;50.926;4.374;2022-11-27T06:33:46;7.83;;;3.50;;
19998;SDS011;10160;50.926;4.374;2022-11-27T06:36:13;11.83;;;3.90;;
19998;SDS011;10160;50.926;4.374;2022-11-27T06:38:40;10.53;;;4.10;;
19998;SDS011;10160;50.926;4.374;2022-11-27T06:41:11;8.47;;;3.60;;
19998;SDS011;10160;50.926;4.374;2022-11-27T06:43:42;7.37;;;3.33;;
19998;SDS011;10160;50.926;4.374;2022-11-27T06:46:10;10.80;;;4.20;;
19998;SDS011;10160;50.926;4.374;2022-11-27T06:48:40;9.90;;;3.50;;
19998;SDS011;10160;50.926;4.374;2022-11-27T06:51:09;12.20;;;3.90;;
19998;SDS011;10160;50.926;4.374;2022-11-27T06:53:38;11.33;;;4.37;;
19998;SDS011;10160;50.926;4.374;2022-11-27T06:56:06;13.00;;;4.27;;
19998;SDS011;10160;50.926;4.374;2022-11-27T06:58:35;11.83;;;4.17;;
19998;SDS011;10160;50.926;4.374;2022-11-27T07:01:04;8.77;;;3.93;;
19998;SDS011;10160;50.926;4.374;2022-11-27T07:03:31;10.20;;;3.90;;
19998;SDS011;10160;50.926;4.374;2022-11-27T07:05:58;11.07;;;3.47;;
19998;SDS011;10160;50.926;4.374;2022-11-27T07:08:24;11.77;;;3.50;;
19998;SDS011;10160;50.926;4.374;2022-11-27T07:10:50;9.93;;;3.77;;
19998;SDS011;10160;50.926;4.374;2022-11-27T07:13:15;10.33;;;3.63;;
19998;SDS011;10160;50.926;4.374;2022-11-27T07:15:43;11.10;;;4.47;;
19998;SDS011;10160;50.926;4.374;2022-11-27T07:18:09;9.60;;;3.77;;
19998;SDS011;10160;50.926;4.374;2022-11-27T07:20:35;8.53;;;3.57;;
19998;SDS011;10160;50.926;4.374;2022-11-27T07:23:00;9.97;;;3.50;;
19998;SDS011;10160;50.926;4.374;2022-11-27T07:25:27;9.90;;;3.87;;
19998;SDS011;10160;50.926;4.374;2022-11-27T07:27:54;7.23;;;3.50;;
19998;SDS011;10160;50.926;4.374;2022-11-27T07:30:21;11.37;;;4.20;;
19998;SDS011;10160;50.926;4.374;2022-11-27T07:32:47;12.60;;;4.37;;
19998;SDS011;10160;50.926;4.374;2022-11-27T07:35:13;15.53;;;3.83;;
19998;SDS011;10160;50.926;4.374;2022-11-27T07:37:39;13.00;;;4.20;;
19998;SDS011;10160;50.926;4.374;2022-11-27T07:40:05;12.03;;;3.90;;
19998;SDS011;10160;50.926;4.374;2022-11-27T07:42:31;8.80;;;3.83;;
19998;SDS011;10160;50.926;4.374;2022-11-27T07:44:58;14.67;;;4.87;;
19998;SDS011;10160;50.926;4.374;2022-11-27T07:47:23;8.77;;;4.27;;
19998;SDS011;10160;50.926;4.374;2022-11-27T07:49:49;14.07;;;4.17;;
19998;SDS011;10160;50.926;4.374;2022-11-27T07:52:19;10.40;;;4.07;;
19998;SDS011;10160;50.926;4.374;2022-11-27T07:54:44;11.53;;;4.63;;
19998;SDS011;10160;50.926;4.374;2022-11-27T07:57:10;10.20;;;4.00;;
19998;SDS011;10160;50.926;4.374;2022-11-27T07:59:36;10.33;;;4.03;;
19998;SDS011;10160;50.926;4.374;2022-11-27T08:02:02;14.30;;;4.77;;
19998;SDS011;10160;50.926;4.374;2022-11-27T08:04:30;13.57;;;4.33;;
19998;SDS011;10160;50.926;4.374;2022-11-27T08:07:03;8.47;;;3.70;;
19998;SDS011;10160;50.926;4.374;2022-11-27T08:09:29;10.50;;;4.37;;
19998;SDS011;10160;50.926;4.374;2022-11-27T08:11:55;11.37;;;4.20;;
19998;SDS011;10160;50.926;4.374;2022-11-27T08:14:21;14.40;;;4.57;;
19998;SDS011;10160;50.926;4.374;2022-11-27T08:16:53;14.50;;;4.83;;
19998;SDS011;10160;50.926;4.374;2022-11-27T08:19:20;11.80;;;5.17;;
19998;SDS011;10160;50.926;4.374;2022-11-27T08:21:46;12.27;;;4.97;;
19998;SDS011;10160;50.926;4.374;2022-11-27T08:24:13;13.87;;;4.70;;
19998;SDS011;10160;50.926;4.374;2022-11-27T08:26:39;12.73;;;4.30;;
19998;SDS011;10160;50.926;4.374;2022-11-27T08:29:05;10.10;;;4.23;;
19998;SDS011;10160;50.926;4.374;2022-11-27T08:31:31;10.57;;;3.70;;
19998;SDS011;10160;50.926;4.374;2022-11-27T08:33:58;9.00;;;4.20;;
19998;SDS011;10160;50.926;4.374;2022-11-27T08:36:24;12.77;;;4.10;;
19998;SDS011;10160;50.926;4.374;2022-11-27T08:38:50;12.63;;;4.77;;
19998;SDS011;10160;50.926;4.374;2022-11-27T08:41:18;10.43;;;4.40;;
19998;SDS011;10160;50.926;4.374;2022-11-27T08:43:45;9.97;;;4.10;;
19998;SDS011;10160;50.926;4.374;2022-11-27T08:46:12;13.00;;;4.13;;
19998;SDS011;10160;50.926;4.374;2022-11-27T08:48:38;15.70;;;4.60;;
19998;SDS011;10160;50.926;4.374;2022-11-27T08:51:06;14.10;;;5.40;;
19998;SDS011;10160;50.926;4.374;2022-11-27T08:53:33;10.50;;;4.90;;
19998;SDS011;10160;50.926;4.374;2022-11-27T08:56:08;10.70;;;4.87;;
19998;SDS011;10160;50.926;4.374;2022-11-27T08:58:45;9.30;;;4.50;;
19998;SDS011;10160;50.926;4.374;2022-11-27T09:01:16;11.67;;;4.57;;
19998;SDS011;10160;50.926;4.374;2022-11-27T09:03:45;12.20;;;4.97;;
19998;SDS011;10160;50.926;4.374;2022-11-27T09:06:14;10.93;;;4.17;;
19998;SDS011;10160;50.926;4.374;2022-11-27T09:08:43;11.13;;;5.00;;
19998;SDS011;10160;50.926;4.374;2022-11-27T09:11:09;13.53;;;5.00;;
19998;SDS011;10160;50.926;4.374;2022-11-27T09:13:37;10.33;;;5.27;;
19998;SDS011;10160;50.926;4.374;2022-11-27T09:16:08;13.50;;;4.87;;
19998;SDS011;10160;50.926;4.374;2022-11-27T09:18:35;13.33;;;4.13;;
19998;SDS011;10160;50.926;4.374;2022-11-27T09:21:06;8.53;;;4.40;;
19998;SDS011;10160;50.926;4.374;2022-11-27T09:23:35;10.33;;;4.03;;
19998;SDS011;10160;50.926;4.374;2022-11-27T09:26:06;12.00;;;5.00;;
19998;SDS011;10160;50.926;4.374;2022-11-27T09:28:35;11.13;;;3.97;;
19998;SDS011;10160;50.926;4.374;2022-11-27T09:31:03;9.63;;;4.10;;
19998;SDS011;10160;50.926;4.374;2022-11-27T09:33:30;11.90;;;5.03;;
19998;SDS011;10160;50.926;4.374;2022-11-27T09:35:57;11.00;;;4.57;;
19998;SDS011;10160;50.926;4.374;2022-11-27T09:38:29;16.27;;;5.40;;
19998;SDS011;10160;50.926;4.374;2022-11-27T09:40:56;15.90;;;5.13;;
19998;SDS011;10160;50.926;4.374;2022-11-27T09:43:29;10.03;;;4.53;;
19998;SDS011;10160;50.926;4.374;2022-11-27T09:46:00;9.33;;;4.07;;
19998;SDS011;10160;50.926;4.374;2022-11-27T09:48:33;11.13;;;5.03;;
19998;SDS011;10160;50.926;4.374;2022-11-27T09:51:14;10.93;;;4.97;;
19998;SDS011;10160;50.926;4.374;2022-11-27T09:56:41;12.53;;;5.47;;
19998;SDS011;10160;50.926;4.374;2022-11-27T09:59:18;13.90;;;5.03;;
19998;SDS011;10160;50.926;4.374;2022-11-27T10:01:47;10.20;;;5.00;;
19998;SDS011;10160;50.926;4.374;2022-11-27T10:04:20;10.90;;;4.20;;
19998;SDS011;10160;50.926;4.374;2022-11-27T10:06:56;11.90;;;5.50;;
19998;SDS011;10160;50.926;4.374;2022-11-27T10:10:00;11.60;;;5.70;;
19998;SDS011;10160;50.926;4.374;2022-11-27T10:18:33;14.87;;;5.93;;
19998;SDS011;10160;50.926;4.374;2022-11-27T10:24:11;15.37;;;6.63;;
19998;SDS011;10160;50.926;4.374;2022-11-27T10:27:09;10.83;;;5.03;;
19998;SDS011;10160;50.926;4.374;2022-11-27T10:29:58;14.93;;;6.53;;
19998;SDS011;10160;50.926;4.374;2022-11-27T10:32:30;12.40;;;5.20;;
19998;SDS011;10160;50.926;4.374;2022-11-27T10:35:00;17.13;;;6.40;;
19998;SDS011;10160;50.926;4.374;2022-11-27T10:37:32;12.97;;;5.87;;
19998;SDS011;10160;50.926;4.374;2022-11-27T10:42:55;13.27;;;6.10;;
19998;SDS011;10160;50.926;4.374;2022-11-27T10:48:13;13.77;;;6.20;;
19998;SDS011;10160;50.926;4.374;2022-11-27T10:50:40;10.97;;;4.70;;
19998;SDS011;10160;50.926;4.374;2022-11-27T10:53:24;12.67;;;5.67;;
19998;SDS011;10160;50.926;4.374;2022-11-27T10:59:00;18.37;;;6.27;;
19998;SDS011;10160;50.926;4.374;2022-11-27T11:01:45;15.80;;;7.17;;
19998;SDS011;10160;50.926;4.374;2022-11-27T11:04:19;15.37;;;6.63;;
19998;SDS011;10160;50.926;4.374;2022-11-27T11:06:46;20.33;;;8.23;;
19998;SDS011;10160;50.926;4.374;2022-11-27T11:09:32;18.23;;;6.77;;
19998;SDS011;10160;50.926;4.374;2022-11-27T11:12:18;15.73;;;6.80;;
19998;SDS011;10160;50.926;4.374;2022-11-27T11:14:52;16.47;;;7.50;;
19998;SDS011;10160;50.926;4.374;2022-11-27T11:17:32;15.90;;;7.03;;
19998;SDS011;10160;50.926;4.374;2022-11-27T11:19:58;14.30;;;6.23;;
19998;SDS011;10160;50.926;4.374;2022-11-27T11:22:42;17.33;;;7.10;;
19998;SDS011;10160;50.926;4.374;2022-11-27T11:25:16;17.10;;;7.83;;
19998;SDS011;10160;50.926;4.374;2022-11-27T11:27:44;18.50;;;7.60;;
19998;SDS011;10160;50.926;4.374;2022-11-27T11:30:21;16.33;;;7.23;;
19998;SDS011;10160;50.926;4.374;2022-11-27T11:33:01;19.17;;;7.07;;
19998;SDS011;10160;50.926;4.374;2022-11-27T11:35:31;16.50;;;6.60;;
19998;SDS011;10160;50.926;4.374;2022-11-27T11:38:03;15.33;;;7.17;;
19998;SDS011;10160;50.926;4.374;2022-11-27T11:40:37;20.10;;;6.80;;
19998;SDS011;10160;50.926;4.374;2022-11-27T11:43:06;17.20;;;7.80;;
19998;SDS011;10160;50.926;4.374;2022-11-27T11:45:51;14.80;;;7.43;;
19998;SDS011;10160;50.926;4.374;2022-11-27T11:48:25;14.07;;;7.40;;
19998;SDS011;10160;50.926;4.374;2022-11-27T11:58:45;14.57;;;6.50;;
19998;SDS011;10160;50.926;4.374;2022-11-27T12:01:30;13.63;;;6.53;;
19998;SDS011;10160;50.926;4.374;2022-11-27T12:06:54;15.73;;;6.33;;
19998;SDS011;10160;50.926;4.374;2022-11-27T12:09:43;16.13;;;7.40;;
19998;SDS011;10160;50.926;4.374;2022-11-27T12:12:25;12.57;;;6.00;;
19998;SDS011;10160;50.926;4.374;2022-11-27T12:18:23;11.57;;;5.40;;
19998;SDS011;10160;50.926;4.374;2022-11-27T12:21:11;13.27;;;6.07;;
19998;SDS011;10160;50.926;4.374;2022-11-27T12:29:51;12.13;;;5.43;;
19998;SDS011;10160;50.926;4.374;2022-11-27T12:33:04;17.07;;;5.50;;
19998;SDS011;10160;50.926;4.374;2022-11-27T12:38:57;10.63;;;5.23;;
19998;SDS011;10160;50.926;4.374;2022-11-27T12:44:46;13.90;;;5.33;;
19998;SDS011;10160;50.926;4.374;2022-11-27T12:47:29;13.47;;;6.17;;
19998;SDS011;10160;50.926;4.374;2022-11-27T12:50:13;11.97;;;5.60;;
19998;SDS011;10160;50.926;4.374;2022-11-27T12:53:11;12.87;;;5.50;;
19998;SDS011;10160;50.926;4.374;2022-11-27T12:55:42;11.93;;;5.17;;
19998;SDS011;10160;50.926;4.374;2022-11-27T12:58:49;12.43;;;5.30;;
19998;SDS011;10160;50.926;4.374;2022-11-27T13:01:33;11.07;;;5.70;;
19998;SDS011;10160;50.926;4.374;2022-11-27T13:06:45;10.93;;;5.33;;
19998;SDS011;10160;50.926;4.374;2022-11-27T13:09:36;10.97;;;5.77;;
19998;SDS011;10160;50.926;4.374;2022-11-27T13:12:12;13.47;;;5.50;;
19998;SDS011;10160;50.926;4.374;2022-11-27T13:14:44;11.07;;;5.00;;
19998;SDS011;10160;50.926;4.374;2022-11-27T13:17:15;14.37;;;5.30;;
19998;SDS011;10160;50.926;4.374;2022-11-27T13:19:48;12.17;;;6.43;;
19998;SDS011;10160;50.926;4.374;2022-11-27T13:22:16;18.90;;;7.53;;
19998;SDS011;10160;50.926;4.374;2022-11-27T13:24:53;12.33;;;5.63;;
19998;SDS011;10160;50.926;4.374;2022-11-27T13:27:22;16.87;;;6.80;;
19998;SDS011;10160;50.926;4.374;2022-11-27T13:30:02;12.03;;;5.90;;
19998;SDS011;10160;50.926;4.374;2022-11-27T13:32:30;9.43;;;4.73;;
19998;SDS011;10160;50.926;4.374;2022-11-27T13:35:16;8.97;;;4.73;;
19998;SDS011;10160;50.926;4.374;2022-11-27T13:37:46;11.57;;;5.47;;
19998;SDS011;10160;50.926;4.374;2022-11-27T13:40:23;12.40;;;5.50;;
19998;SDS011;10160;50.926;4.374;2022-11-27T13:42:59;11.53;;;5.83;;
19998;SDS011;10160;50.926;4.374;2022-11-27T13:45:31;10.73;;;5.10;;
19998;SDS011;10160;50.926;4.374;2022-11-27T13:48:01;13.80;;;5.70;;
19998;SDS011;10160;50.926;4.374;2022-11-27T13:50:52;12.57;;;5.70;;
19998;SDS011;10160;50.926;4.374;2022-11-27T13:53:18;11.13;;;5.67;;
19998;SDS011;10160;50.926;4.374;2022-11-27T13:56:04;16.10;;;6.07;;
19998;SDS011;10160;50.926;4.374;2022-11-27T13:58:36;11.97;;;5.60;;
19998;SDS011;10160;50.926;4.374;2022-11-27T14:01:11;14.33;;;6.13;;
19998;SDS011;10160;50.926;4.374;2022-11-27T14:03:39;11.27;;;5.67;;
19998;SDS011;10160;50.926;4.374;2022-11-27T14:06:22;9.33;;;5.20;;
19998;SDS011;10160;50.926;4.374;2022-11-27T14:08:56;11.77;;;5.17;;
19998;SDS011;10160;50.926;4.374;2022-11-27T14:11:44;11.73;;;6.27;;
19998;SDS011;10160;50.926;4.374;2022-11-27T14:14:19;10.20;;;5.47;;
19998;SDS011;10160;50.926;4.374;2022-11-27T14:16:57;10.87;;;5.67;;
19998;SDS011;10160;50.926;4.374;2022-11-27T14:19:30;12.80;;;5.17;;
19998;SDS011;10160;50.926;4.374;2022-11-27T14:22:15;12.40;;;5.30;;
19998;SDS011;10160;50.926;4.374;2022-11-27T14:24:56;9.33;;;4.67;;
19998;SDS011;10160;50.926;4.374;2022-11-27T14:27:23;9.97;;;4.63;;
19998;SDS011;10160;50.926;4.374;2022-11-27T14:29:52;12.47;;;5.47;;
19998;SDS011;10160;50.926;4.374;2022-11-27T14:32:19;9.23;;;4.53;;
19998;SDS011;10160;50.926;4.374;2022-11-27T14:34:46;10.90;;;4.70;;
19998;SDS011;10160;50.926;4.374;2022-11-27T14:37:23;10.07;;;5.03;;
19998;SDS011;10160;50.926;4.374;2022-11-27T14:39:51;11.20;;;4.33;;
19998;SDS011;10160;50.926;4.374;2022-11-27T14:42:18;10.03;;;4.63;;
19998;SDS011;10160;50.926;4.374;2022-11-27T14:44:46;12.13;;;4.83;;
19998;SDS011;10160;50.926;4.374;2022-11-27T14:47:16;8.87;;;4.43;;
19998;SDS011;10160;50.926;4.374;2022-11-27T14:49:44;8.60;;;4.70;;
19998;SDS011;10160;50.926;4.374;2022-11-27T14:52:13;11.50;;;5.23;;
19998;SDS011;10160;50.926;4.374;2022-11-27T14:54:40;12.10;;;4.73;;
19998;SDS011;10160;50.926;4.374;2022-11-27T14:57:27;9.37;;;4.80;;
19998;SDS011;10160;50.926;4.374;2022-11-27T15:00:01;9.93;;;5.17;;
19998;SDS011;10160;50.926;4.374;2022-11-27T15:02:51;10.63;;;4.80;;
19998;SDS011;10160;50.926;4.374;2022-11-27T15:05:19;8.57;;;4.60;;
19998;SDS011;10160;50.926;4.374;2022-11-27T15:07:50;10.57;;;4.50;;
19998;SDS011;10160;50.926;4.374;2022-11-27T15:10:34;11.97;;;5.13;;
19998;SDS011;10160;50.926;4.374;2022-11-27T15:13:04;8.43;;;4.50;;
19998;SDS011;10160;50.926;4.374;2022-11-27T15:15:35;11.13;;;4.40;;
19998;SDS011;10160;50.926;4.374;2022-11-27T15:18:06;10.30;;;4.50;;
19998;SDS011;10160;50.926;4.374;2022-11-27T15:20:40;11.67;;;4.40;;
19998;SDS011;10160;50.926;4.374;2022-11-27T15:23:14;11.40;;;4.70;;
19998;SDS011;10160;50.926;4.374;2022-11-27T15:25:43;10.67;;;5.13;;
19998;SDS011;10160;50.926;4.374;2022-11-27T15:30:52;9.30;;;4.73;;
19998;SDS011;10160;50.926;4.374;2022-11-27T15:33:28;11.30;;;5.13;;
19998;SDS011;10160;50.926;4.374;2022-11-27T15:36:15;10.17;;;5.23;;
19998;SDS011;10160;50.926;4.374;2022-11-27T15:38:45;10.90;;;5.70;;
19998;SDS011;10160;50.926;4.374;2022-11-27T15:41:22;11.83;;;6.73;;
19998;SDS011;10160;50.926;4.374;2022-11-27T15:43:50;12.43;;;6.10;;
19998;SDS011;10160;50.926;4.374;2022-11-27T15:46:27;14.20;;;5.43;;
19998;SDS011;10160;50.926;4.374;2022-11-27T15:48:58;12.67;;;5.37;;
19998;SDS011;10160;50.926;4.374;2022-11-27T15:51:27;10.93;;;5.77;;
19998;SDS011;10160;50.926;4.374;2022-11-27T15:54:02;13.80;;;6.00;;
19998;SDS011;10160;50.926;4.374;2022-11-27T15:56:28;13.97;;;5.47;;
19998;SDS011;10160;50.926;4.374;2022-11-27T15:58:56;12.30;;;5.10;;
19998;SDS011;10160;50.926;4.374;2022-11-27T16:01:23;10.63;;;5.27;;
19998;SDS011;10160;50.926;4.374;2022-11-27T16:03:49;11.27;;;5.63;;
19998;SDS011;10160;50.926;4.374;2022-11-27T16:06:16;10.43;;;5.20;;
19998;SDS011;10160;50.926;4.374;2022-11-27T16:08:44;10.00;;;5.10;;
19998;SDS011;10160;50.926;4.374;2022-11-27T16:11:13;9.70;;;5.93;;
19998;SDS011;10160;50.926;4.374;2022-11-27T16:13:43;12.00;;;5.23;;
19998;SDS011;10160;50.926;4.374;2022-11-27T16:16:10;10.60;;;4.90;;
19998;SDS011;10160;50.926;4.374;2022-11-27T16:18:42;9.17;;;4.93;;
19998;SDS011;10160;50.926;4.374;2022-11-27T16:21:08;10.87;;;5.80;;
19998;SDS011;10160;50.926;4.374;2022-11-27T16:23:37;10.77;;;6.17;;
19998;SDS011;10160;50.926;4.374;2022-11-27T16:26:13;9.70;;;5.03;;
19998;SDS011;10160;50.926;4.374;2022-11-27T16:28:39;11.43;;;5.67;;
19998;SDS011;10160;50.926;4.374;2022-11-27T16:31:06;11.37;;;5.07;;
19998;SDS011;10160;50.926;4.374;2022-11-27T16:33:52;10.83;;;4.67;;
19998;SDS011;10160;50.926;4.374;2022-11-27T16:36:19;12.47;;;5.40;;
19998;SDS011;10160;50.926;4.374;2022-11-27T16:38:46;14.70;;;7.80;;